sensor_id;sensor_type;location;lat;lon;timestamp;P1;durP1;ratioP1;P2;durP2;ratioP2
24715;SDS011;12822;50.124;8.678;2022-09-09T00:00:53;6.22;;;1.20;;
24715;SDS011;12822;50.124;8.678;2022-09-09T00:03:25;5.43;;;1.38;;
24715;SDS011;12822;50.124;8.678;2022-09-09T00:08:18;3.33;;;1.30;;
24715;SDS011;12822;50.124;8.678;2022-09-09T00:10:45;8.45;;;1.70;;
24715;SDS011;12822;50.124;8.678;2022-09-09T00:13:21;4.40;;;1.30;;
24715;SDS011;12822;50.124;8.678;2022-09-09T00:15:54;3.85;;;1.38;;
24715;SDS011;12822;50.124;8.678;2022-09-09T00:23:34;5.47;;;1.20;;
24715;SDS011;12822;50.124;8.678;2022-09-09T00:28:28;5.28;;;1.73;;
24715;SDS011;12822;50.124;8.678;2022-09-09T00:30:57;8.13;;;1.52;;
24715;SDS011;12822;50.124;8.678;2022-09-09T00:33:26;3.53;;;1.02;;
24715;SDS011;12822;50.124;8.678;2022-09-09T00:35:56;4.40;;;1.23;;
24715;SDS011;12822;50.124;8.678;2022-09-09T00:40:52;7.72;;;1.60;;
24715;SDS011;12822;50.124;8.678;2022-09-09T00:43:26;5.18;;;1.30;;
24715;SDS011;12822;50.124;8.678;2022-09-09T00:48:44;6.07;;;1.60;;
24715;SDS011;12822;50.124;8.678;2022-09-09T00:54:01;5.53;;;1.60;;
24715;SDS011;12822;50.124;8.678;2022-09-09T00:56:37;9.10;;;1.70;;
24715;SDS011;12822;50.124;8.678;2022-09-09T01:01:36;7.05;;;2.05;;
24715;SDS011;12822;50.124;8.678;2022-09-09T01:04:04;4.97;;;1.65;;
24715;SDS011;12822;50.124;8.678;2022-09-09T01:06:37;4.28;;;1.70;;
24715;SDS011;12822;50.124;8.678;2022-09-09T01:12:08;7.50;;;2.08;;
24715;SDS011;12822;50.124;8.678;2022-09-09T01:17:09;5.43;;;1.90;;
24715;SDS011;12822;50.124;8.678;2022-09-09T01:19:43;8.43;;;1.80;;
24715;SDS011;12822;50.124;8.678;2022-09-09T01:24:43;4.22;;;1.20;;
24715;SDS011;12822;50.124;8.678;2022-09-09T01:27:13;6.80;;;1.88;;
24715;SDS011;12822;50.124;8.678;2022-09-09T01:29:40;7.18;;;1.50;;
24715;SDS011;12822;50.124;8.678;2022-09-09T01:34:51;7.07;;;1.88;;
24715;SDS011;12822;50.124;8.678;2022-09-09T01:37:17;4.10;;;1.45;;
24715;SDS011;12822;50.124;8.678;2022-09-09T01:39:43;6.15;;;1.70;;
24715;SDS011;12822;50.124;8.678;2022-09-09T01:42:11;7.13;;;1.75;;
24715;SDS011;12822;50.124;8.678;2022-09-09T01:44:37;5.47;;;1.67;;
24715;SDS011;12822;50.124;8.678;2022-09-09T01:47:04;5.20;;;1.77;;
24715;SDS011;12822;50.124;8.678;2022-09-09T01:49:30;9.40;;;2.08;;
24715;SDS011;12822;50.124;8.678;2022-09-09T01:51:58;6.20;;;1.83;;
24715;SDS011;12822;50.124;8.678;2022-09-09T01:54:28;7.07;;;2.10;;
24715;SDS011;12822;50.124;8.678;2022-09-09T01:59:31;4.53;;;1.58;;
24715;SDS011;12822;50.124;8.678;2022-09-09T02:02:09;5.95;;;1.50;;
24715;SDS011;12822;50.124;8.678;2022-09-09T02:07:02;6.22;;;1.88;;
24715;SDS011;12822;50.124;8.678;2022-09-09T02:09:29;6.47;;;1.85;;
24715;SDS011;12822;50.124;8.678;2022-09-09T02:11:57;7.40;;;2.20;;
24715;SDS011;12822;50.124;8.678;2022-09-09T02:14:27;11.70;;;2.33;;
24715;SDS011;12822;50.124;8.678;2022-09-09T02:17:08;6.32;;;2.28;;
24715;SDS011;12822;50.124;8.678;2022-09-09T02:19:36;6.25;;;1.90;;
24715;SDS011;12822;50.124;8.678;2022-09-09T02:22:04;5.13;;;1.77;;
24715;SDS011;12822;50.124;8.678;2022-09-09T02:24:32;9.45;;;1.50;;
24715;SDS011;12822;50.124;8.678;2022-09-09T02:26:59;4.82;;;1.60;;
24715;SDS011;12822;50.124;8.678;2022-09-09T02:29:27;7.60;;;2.15;;
24715;SDS011;12822;50.124;8.678;2022-09-09T02:31:56;7.95;;;1.92;;
24715;SDS011;12822;50.124;8.678;2022-09-09T02:34:23;4.68;;;1.88;;
24715;SDS011;12822;50.124;8.678;2022-09-09T02:36:53;6.95;;;1.80;;
24715;SDS011;12822;50.124;8.678;2022-09-09T02:39:20;6.80;;;2.08;;
24715;SDS011;12822;50.124;8.678;2022-09-09T02:41:46;8.73;;;2.40;;
24715;SDS011;12822;50.124;8.678;2022-09-09T02:44:16;4.50;;;1.80;;
24715;SDS011;12822;50.124;8.678;2022-09-09T02:47:03;8.55;;;1.88;;
24715;SDS011;12822;50.124;8.678;2022-09-09T02:52:19;7.50;;;2.22;;
24715;SDS011;12822;50.124;8.678;2022-09-09T02:59:39;8.73;;;2.10;;
24715;SDS011;12822;50.124;8.678;2022-09-09T03:02:06;4.78;;;1.83;;
24715;SDS011;12822;50.124;8.678;2022-09-09T03:04:36;6.63;;;2.20;;
24715;SDS011;12822;50.124;8.678;2022-09-09T03:07:02;8.23;;;1.98;;
24715;SDS011;12822;50.124;8.678;2022-09-09T03:09:28;5.85;;;2.50;;
24715;SDS011;12822;50.124;8.678;2022-09-09T03:11:54;7.35;;;2.30;;
24715;SDS011;12822;50.124;8.678;2022-09-09T03:14:21;8.82;;;2.35;;
24715;SDS011;12822;50.124;8.678;2022-09-09T03:16:49;6.80;;;2.33;;
24715;SDS011;12822;50.124;8.678;2022-09-09T03:19:15;8.95;;;1.85;;
24715;SDS011;12822;50.124;8.678;2022-09-09T03:21:41;6.97;;;1.98;;
24715;SDS011;12822;50.124;8.678;2022-09-09T03:24:07;9.10;;;2.45;;
24715;SDS011;12822;50.124;8.678;2022-09-09T03:26:34;7.75;;;2.35;;
24715;SDS011;12822;50.124;8.678;2022-09-09T03:29:00;9.00;;;2.58;;
24715;SDS011;12822;50.124;8.678;2022-09-09T03:31:26;9.10;;;2.20;;
24715;SDS011;12822;50.124;8.678;2022-09-09T03:33:55;5.18;;;2.15;;
24715;SDS011;12822;50.124;8.678;2022-09-09T03:36:21;12.95;;;2.92;;
24715;SDS011;12822;50.124;8.678;2022-09-09T03:38:47;7.35;;;2.33;;
24715;SDS011;12822;50.124;8.678;2022-09-09T03:41:13;6.07;;;1.83;;
24715;SDS011;12822;50.124;8.678;2022-09-09T03:43:39;5.43;;;2.03;;
24715;SDS011;12822;50.124;8.678;2022-09-09T03:46:06;9.30;;;2.08;;
24715;SDS011;12822;50.124;8.678;2022-09-09T03:48:32;4.82;;;1.85;;
24715;SDS011;12822;50.124;8.678;2022-09-09T03:50:58;4.93;;;1.95;;
24715;SDS011;12822;50.124;8.678;2022-09-09T03:53:26;4.18;;;2.08;;
24715;SDS011;12822;50.124;8.678;2022-09-09T03:55:53;6.53;;;1.60;;
24715;SDS011;12822;50.124;8.678;2022-09-09T03:58:20;4.82;;;1.50;;
24715;SDS011;12822;50.124;8.678;2022-09-09T04:01:03;4.97;;;1.73;;
24715;SDS011;12822;50.124;8.678;2022-09-09T04:03:29;7.70;;;1.70;;
24715;SDS011;12822;50.124;8.678;2022-09-09T04:05:56;4.15;;;1.50;;
24715;SDS011;12822;50.124;8.678;2022-09-09T04:08:23;10.25;;;2.28;;
24715;SDS011;12822;50.124;8.678;2022-09-09T04:10:52;4.63;;;1.70;;
24715;SDS011;12822;50.124;8.678;2022-09-09T04:13:18;5.32;;;1.83;;
24715;SDS011;12822;50.124;8.678;2022-09-09T04:15:54;9.80;;;2.05;;
24715;SDS011;12822;50.124;8.678;2022-09-09T04:18:21;4.75;;;1.27;;
24715;SDS011;12822;50.124;8.678;2022-09-09T04:20:47;8.13;;;1.52;;
24715;SDS011;12822;50.124;8.678;2022-09-09T04:23:14;11.82;;;2.22;;
24715;SDS011;12822;50.124;8.678;2022-09-09T04:25:46;7.78;;;2.00;;
24715;SDS011;12822;50.124;8.678;2022-09-09T04:28:13;7.03;;;1.63;;
24715;SDS011;12822;50.124;8.678;2022-09-09T04:30:39;3.85;;;1.40;;
24715;SDS011;12822;50.124;8.678;2022-09-09T04:33:06;7.85;;;2.00;;
24715;SDS011;12822;50.124;8.678;2022-09-09T04:35:32;6.20;;;2.40;;
24715;SDS011;12822;50.124;8.678;2022-09-09T04:37:58;8.98;;;1.95;;
24715;SDS011;12822;50.124;8.678;2022-09-09T04:40:24;6.78;;;2.08;;
24715;SDS011;12822;50.124;8.678;2022-09-09T04:42:50;10.75;;;1.90;;
24715;SDS011;12822;50.124;8.678;2022-09-09T04:45:17;8.75;;;2.30;;
24715;SDS011;12822;50.124;8.678;2022-09-09T04:47:43;5.90;;;1.63;;
24715;SDS011;12822;50.124;8.678;2022-09-09T04:50:09;6.90;;;1.80;;
24715;SDS011;12822;50.124;8.678;2022-09-09T04:52:35;6.68;;;1.55;;
24715;SDS011;12822;50.124;8.678;2022-09-09T04:55:02;3.67;;;1.52;;
24715;SDS011;12822;50.124;8.678;2022-09-09T04:57:27;5.38;;;1.67;;
24715;SDS011;12822;50.124;8.678;2022-09-09T04:59:54;6.47;;;1.70;;
24715;SDS011;12822;50.124;8.678;2022-09-09T05:02:19;5.65;;;1.65;;
24715;SDS011;12822;50.124;8.678;2022-09-09T05:04:45;5.28;;;1.13;;
24715;SDS011;12822;50.124;8.678;2022-09-09T05:07:11;5.38;;;1.80;;
24715;SDS011;12822;50.124;8.678;2022-09-09T05:09:39;8.60;;;2.10;;
24715;SDS011;12822;50.124;8.678;2022-09-09T05:12:05;10.32;;;2.33;;
24715;SDS011;12822;50.124;8.678;2022-09-09T05:14:31;6.68;;;1.92;;
24715;SDS011;12822;50.124;8.678;2022-09-09T05:16:57;6.82;;;1.77;;
24715;SDS011;12822;50.124;8.678;2022-09-09T05:19:23;7.88;;;2.20;;
24715;SDS011;12822;50.124;8.678;2022-09-09T05:21:49;7.50;;;1.83;;
24715;SDS011;12822;50.124;8.678;2022-09-09T05:24:15;6.90;;;1.80;;
24715;SDS011;12822;50.124;8.678;2022-09-09T05:26:42;7.05;;;1.60;;
24715;SDS011;12822;50.124;8.678;2022-09-09T05:29:09;5.50;;;2.10;;
24715;SDS011;12822;50.124;8.678;2022-09-09T05:31:35;5.47;;;1.65;;
24715;SDS011;12822;50.124;8.678;2022-09-09T05:34:01;8.43;;;2.08;;
24715;SDS011;12822;50.124;8.678;2022-09-09T05:36:27;6.72;;;2.10;;
24715;SDS011;12822;50.124;8.678;2022-09-09T05:38:53;4.97;;;1.65;;
24715;SDS011;12822;50.124;8.678;2022-09-09T05:41:19;7.43;;;1.83;;
24715;SDS011;12822;50.124;8.678;2022-09-09T05:43:46;12.57;;;2.00;;
24715;SDS011;12822;50.124;8.678;2022-09-09T05:46:19;8.00;;;2.38;;
24715;SDS011;12822;50.124;8.678;2022-09-09T05:48:46;5.75;;;1.92;;
24715;SDS011;12822;50.124;8.678;2022-09-09T05:51:14;6.70;;;1.70;;
24715;SDS011;12822;50.124;8.678;2022-09-09T05:53:40;6.95;;;2.15;;
24715;SDS011;12822;50.124;8.678;2022-09-09T05:56:11;8.90;;;1.90;;
24715;SDS011;12822;50.124;8.678;2022-09-09T05:58:39;7.82;;;2.28;;
24715;SDS011;12822;50.124;8.678;2022-09-09T06:01:12;7.10;;;1.90;;
24715;SDS011;12822;50.124;8.678;2022-09-09T06:03:39;7.40;;;1.95;;
24715;SDS011;12822;50.124;8.678;2022-09-09T06:06:07;9.73;;;1.77;;
24715;SDS011;12822;50.124;8.678;2022-09-09T06:08:33;7.78;;;1.55;;
24715;SDS011;12822;50.124;8.678;2022-09-09T06:11:02;7.93;;;1.95;;
24715;SDS011;12822;50.124;8.678;2022-09-09T06:13:29;7.40;;;1.63;;
24715;SDS011;12822;50.124;8.678;2022-09-09T06:15:55;8.25;;;2.03;;
24715;SDS011;12822;50.124;8.678;2022-09-09T06:18:21;8.30;;;1.70;;
24715;SDS011;12822;50.124;8.678;2022-09-09T06:20:57;6.18;;;1.70;;
24715;SDS011;12822;50.124;8.678;2022-09-09T06:23:23;7.13;;;1.77;;
24715;SDS011;12822;50.124;8.678;2022-09-09T06:25:50;6.75;;;1.67;;
24715;SDS011;12822;50.124;8.678;2022-09-09T06:28:16;9.25;;;1.88;;
24715;SDS011;12822;50.124;8.678;2022-09-09T06:30:42;6.72;;;2.00;;
24715;SDS011;12822;50.124;8.678;2022-09-09T06:33:09;4.78;;;1.95;;
24715;SDS011;12822;50.124;8.678;2022-09-09T06:35:35;8.40;;;1.50;;
24715;SDS011;12822;50.124;8.678;2022-09-09T06:38:01;11.00;;;1.52;;
24715;SDS011;12822;50.124;8.678;2022-09-09T06:40:28;7.03;;;1.60;;
24715;SDS011;12822;50.124;8.678;2022-09-09T06:42:55;9.38;;;1.70;;
24715;SDS011;12822;50.124;8.678;2022-09-09T06:45:24;7.43;;;2.17;;
24715;SDS011;12822;50.124;8.678;2022-09-09T06:47:54;8.68;;;1.63;;
24715;SDS011;12822;50.124;8.678;2022-09-09T06:50:20;9.27;;;1.60;;
24715;SDS011;12822;50.124;8.678;2022-09-09T06:52:46;8.13;;;1.85;;
24715;SDS011;12822;50.124;8.678;2022-09-09T06:55:16;6.68;;;1.50;;
24715;SDS011;12822;50.124;8.678;2022-09-09T06:57:43;5.80;;;1.40;;
24715;SDS011;12822;50.124;8.678;2022-09-09T07:00:09;10.77;;;2.15;;
24715;SDS011;12822;50.124;8.678;2022-09-09T07:02:36;7.43;;;1.52;;
24715;SDS011;12822;50.124;8.678;2022-09-09T07:05:04;11.00;;;2.05;;
24715;SDS011;12822;50.124;8.678;2022-09-09T07:07:30;7.05;;;1.70;;
24715;SDS011;12822;50.124;8.678;2022-09-09T07:09:56;6.50;;;1.48;;
24715;SDS011;12822;50.124;8.678;2022-09-09T07:12:22;5.32;;;1.83;;
24715;SDS011;12822;50.124;8.678;2022-09-09T07:14:47;6.78;;;1.45;;
24715;SDS011;12822;50.124;8.678;2022-09-09T07:17:14;5.97;;;1.77;;
24715;SDS011;12822;50.124;8.678;2022-09-09T07:19:40;9.18;;;1.45;;
24715;SDS011;12822;50.124;8.678;2022-09-09T07:22:06;8.73;;;1.98;;
24715;SDS011;12822;50.124;8.678;2022-09-09T07:24:32;8.27;;;1.92;;
24715;SDS011;12822;50.124;8.678;2022-09-09T07:26:58;9.40;;;1.75;;
24715;SDS011;12822;50.124;8.678;2022-09-09T07:29:24;9.95;;;1.80;;
24715;SDS011;12822;50.124;8.678;2022-09-09T07:31:50;4.70;;;1.67;;
24715;SDS011;12822;50.124;8.678;2022-09-09T07:34:16;10.43;;;1.83;;
24715;SDS011;12822;50.124;8.678;2022-09-09T07:36:43;5.00;;;1.42;;
24715;SDS011;12822;50.124;8.678;2022-09-09T07:39:10;7.40;;;1.85;;
24715;SDS011;12822;50.124;8.678;2022-09-09T07:41:41;9.75;;;1.98;;
24715;SDS011;12822;50.124;8.678;2022-09-09T07:44:09;7.82;;;1.52;;
24715;SDS011;12822;50.124;8.678;2022-09-09T07:46:35;8.20;;;2.22;;
24715;SDS011;12822;50.124;8.678;2022-09-09T07:49:04;8.25;;;1.73;;
24715;SDS011;12822;50.124;8.678;2022-09-09T07:51:31;6.70;;;1.83;;
24715;SDS011;12822;50.124;8.678;2022-09-09T07:53:59;7.40;;;1.75;;
24715;SDS011;12822;50.124;8.678;2022-09-09T07:56:27;4.55;;;1.73;;
24715;SDS011;12822;50.124;8.678;2022-09-09T07:58:54;6.32;;;2.00;;
24715;SDS011;12822;50.124;8.678;2022-09-09T08:01:24;7.45;;;1.83;;
24715;SDS011;12822;50.124;8.678;2022-09-09T08:03:54;11.30;;;1.88;;
24715;SDS011;12822;50.124;8.678;2022-09-09T08:06:21;11.05;;;1.80;;
24715;SDS011;12822;50.124;8.678;2022-09-09T08:08:49;7.60;;;1.70;;
24715;SDS011;12822;50.124;8.678;2022-09-09T08:11:15;10.82;;;2.20;;
24715;SDS011;12822;50.124;8.678;2022-09-09T08:13:42;5.65;;;1.70;;
24715;SDS011;12822;50.124;8.678;2022-09-09T08:16:10;6.05;;;1.25;;
24715;SDS011;12822;50.124;8.678;2022-09-09T08:18:36;6.85;;;1.48;;
24715;SDS011;12822;50.124;8.678;2022-09-09T08:23:33;6.45;;;1.98;;
24715;SDS011;12822;50.124;8.678;2022-09-09T08:26:06;5.47;;;1.60;;
24715;SDS011;12822;50.124;8.678;2022-09-09T08:28:34;8.75;;;1.90;;
24715;SDS011;12822;50.124;8.678;2022-09-09T08:31:07;3.95;;;1.20;;
24715;SDS011;12822;50.124;8.678;2022-09-09T08:33:33;6.22;;;1.73;;
24715;SDS011;12822;50.124;8.678;2022-09-09T08:36:01;9.88;;;2.05;;
24715;SDS011;12822;50.124;8.678;2022-09-09T08:38:27;8.77;;;1.92;;
24715;SDS011;12822;50.124;8.678;2022-09-09T08:40:53;6.88;;;1.70;;
24715;SDS011;12822;50.124;8.678;2022-09-09T08:43:26;8.82;;;1.63;;
24715;SDS011;12822;50.124;8.678;2022-09-09T08:45:59;8.23;;;1.98;;
24715;SDS011;12822;50.124;8.678;2022-09-09T08:48:32;11.30;;;1.90;;
24715;SDS011;12822;50.124;8.678;2022-09-09T08:51:06;6.13;;;1.83;;
24715;SDS011;12822;50.124;8.678;2022-09-09T08:53:38;7.00;;;1.73;;
24715;SDS011;12822;50.124;8.678;2022-09-09T08:56:08;7.05;;;2.00;;
24715;SDS011;12822;50.124;8.678;2022-09-09T08:58:38;7.35;;;1.70;;
24715;SDS011;12822;50.124;8.678;2022-09-09T09:08:47;11.07;;;2.55;;
24715;SDS011;12822;50.124;8.678;2022-09-09T09:11:18;5.97;;;1.63;;
24715;SDS011;12822;50.124;8.678;2022-09-09T09:19:13;11.15;;;2.30;;
24715;SDS011;12822;50.124;8.678;2022-09-09T09:24:19;7.85;;;1.73;;
24715;SDS011;12822;50.124;8.678;2022-09-09T09:26:46;8.27;;;2.25;;
24715;SDS011;12822;50.124;8.678;2022-09-09T09:29:13;12.88;;;1.95;;
24715;SDS011;12822;50.124;8.678;2022-09-09T09:31:41;8.43;;;1.90;;
24715;SDS011;12822;50.124;8.678;2022-09-09T09:34:07;11.10;;;2.10;;
24715;SDS011;12822;50.124;8.678;2022-09-09T09:37:11;10.27;;;2.42;;
24715;SDS011;12822;50.124;8.678;2022-09-09T09:39:30;15.55;;;2.70;;
24715;SDS011;12822;50.124;8.678;2022-09-09T09:42:10;7.53;;;1.67;;
24715;SDS011;12822;50.124;8.678;2022-09-09T09:44:40;11.40;;;1.83;;
24715;SDS011;12822;50.124;8.678;2022-09-09T09:47:08;13.70;;;2.60;;
24715;SDS011;12822;50.124;8.678;2022-09-09T09:49:34;6.78;;;1.98;;
24715;SDS011;12822;50.124;8.678;2022-09-09T09:52:04;10.57;;;2.30;;
24715;SDS011;12822;50.124;8.678;2022-09-09T09:54:31;11.23;;;2.20;;
24715;SDS011;12822;50.124;8.678;2022-09-09T09:57:11;7.35;;;2.20;;
24715;SDS011;12822;50.124;8.678;2022-09-09T09:59:38;9.48;;;2.75;;
24715;SDS011;12822;50.124;8.678;2022-09-09T10:04:43;9.95;;;1.95;;
24715;SDS011;12822;50.124;8.678;2022-09-09T10:07:17;8.13;;;2.15;;
24715;SDS011;12822;50.124;8.678;2022-09-09T10:09:43;12.50;;;1.92;;
24715;SDS011;12822;50.124;8.678;2022-09-09T10:12:14;8.85;;;1.75;;
24715;SDS011;12822;50.124;8.678;2022-09-09T10:17:14;11.35;;;2.67;;
24715;SDS011;12822;50.124;8.678;2022-09-09T10:19:45;8.98;;;2.00;;
24715;SDS011;12822;50.124;8.678;2022-09-09T10:22:26;8.77;;;2.00;;
24715;SDS011;12822;50.124;8.678;2022-09-09T10:27:28;12.70;;;3.90;;
24715;SDS011;12822;50.124;8.678;2022-09-09T10:35:10;7.47;;;1.90;;
24715;SDS011;12822;50.124;8.678;2022-09-09T10:40:34;6.10;;;1.60;;
24715;SDS011;12822;50.124;8.678;2022-09-09T10:46:11;9.02;;;2.17;;
24715;SDS011;12822;50.124;8.678;2022-09-09T10:52:27;6.00;;;1.58;;
24715;SDS011;12822;50.124;8.678;2022-09-09T10:54:50;15.27;;;2.28;;
24715;SDS011;12822;50.124;8.678;2022-09-09T10:59:48;12.52;;;2.95;;
24715;SDS011;12822;50.124;8.678;2022-09-09T11:02:25;15.20;;;3.20;;
24715;SDS011;12822;50.124;8.678;2022-09-09T11:07:41;12.68;;;2.38;;
24715;SDS011;12822;50.124;8.678;2022-09-09T11:10:19;10.93;;;2.70;;
24715;SDS011;12822;50.124;8.678;2022-09-09T11:12:49;8.73;;;1.75;;
24715;SDS011;12822;50.124;8.678;2022-09-09T11:15:23;9.73;;;1.92;;
24715;SDS011;12822;50.124;8.678;2022-09-09T11:17:55;8.43;;;1.73;;
24715;SDS011;12822;50.124;8.678;2022-09-09T11:20:22;7.70;;;1.67;;
24715;SDS011;12822;50.124;8.678;2022-09-09T11:28:02;8.02;;;2.00;;
24715;SDS011;12822;50.124;8.678;2022-09-09T11:38:40;6.47;;;1.45;;
24715;SDS011;12822;50.124;8.678;2022-09-09T11:41:10;5.97;;;1.70;;
24715;SDS011;12822;50.124;8.678;2022-09-09T11:43:47;9.77;;;1.70;;
24715;SDS011;12822;50.124;8.678;2022-09-09T11:46:16;7.95;;;2.15;;
24715;SDS011;12822;50.124;8.678;2022-09-09T11:48:44;8.35;;;1.65;;
24715;SDS011;12822;50.124;8.678;2022-09-09T11:59:20;3.40;;;1.30;;
24715;SDS011;12822;50.124;8.678;2022-09-09T12:01:50;5.07;;;1.17;;
24715;SDS011;12822;50.124;8.678;2022-09-09T12:17:22;2.78;;;0.98;;
24715;SDS011;12822;50.124;8.678;2022-09-09T12:19:48;12.85;;;2.17;;
24715;SDS011;12822;50.124;8.678;2022-09-09T12:25:00;7.80;;;1.65;;
24715;SDS011;12822;50.124;8.678;2022-09-09T12:27:35;7.45;;;1.27;;
24715;SDS011;12822;50.124;8.678;2022-09-09T12:30:11;9.55;;;1.65;;
24715;SDS011;12822;50.124;8.678;2022-09-09T12:32:39;5.20;;;1.63;;
24715;SDS011;12822;50.124;8.678;2022-09-09T12:35:09;5.88;;;1.50;;
24715;SDS011;12822;50.124;8.678;2022-09-09T12:37:38;4.50;;;1.30;;
24715;SDS011;12822;50.124;8.678;2022-09-09T12:40:06;5.65;;;1.40;;
24715;SDS011;12822;50.124;8.678;2022-09-09T12:42:32;9.93;;;1.70;;
24715;SDS011;12822;50.124;8.678;2022-09-09T12:44:59;3.88;;;1.30;;
24715;SDS011;12822;50.124;8.678;2022-09-09T12:47:28;6.38;;;1.48;;
24715;SDS011;12822;50.124;8.678;2022-09-09T12:49:56;4.85;;;1.20;;
24715;SDS011;12822;50.124;8.678;2022-09-09T12:52:26;14.20;;;2.10;;
24715;SDS011;12822;50.124;8.678;2022-09-09T12:54:55;9.60;;;1.80;;
24715;SDS011;12822;50.124;8.678;2022-09-09T12:57:22;6.75;;;1.48;;
24715;SDS011;12822;50.124;8.678;2022-09-09T12:59:50;4.45;;;1.50;;
24715;SDS011;12822;50.124;8.678;2022-09-09T13:04:45;5.32;;;1.63;;
24715;SDS011;12822;50.124;8.678;2022-09-09T13:07:12;4.85;;;1.50;;
24715;SDS011;12822;50.124;8.678;2022-09-09T13:09:38;7.95;;;1.40;;
24715;SDS011;12822;50.124;8.678;2022-09-09T13:12:04;8.90;;;1.58;;
24715;SDS011;12822;50.124;8.678;2022-09-09T13:14:33;9.55;;;1.88;;
24715;SDS011;12822;50.124;8.678;2022-09-09T13:17:02;7.00;;;2.08;;
24715;SDS011;12822;50.124;8.678;2022-09-09T13:19:29;4.50;;;1.77;;
24715;SDS011;12822;50.124;8.678;2022-09-09T13:21:57;4.95;;;1.55;;
24715;SDS011;12822;50.124;8.678;2022-09-09T13:29:22;8.45;;;1.70;;
24715;SDS011;12822;50.124;8.678;2022-09-09T13:31:48;11.23;;;1.70;;
24715;SDS011;12822;50.124;8.678;2022-09-09T13:36:52;5.07;;;1.27;;
24715;SDS011;12822;50.124;8.678;2022-09-09T13:39:19;3.78;;;1.50;;
24715;SDS011;12822;50.124;8.678;2022-09-09T13:41:46;6.63;;;0.95;;
24715;SDS011;12822;50.124;8.678;2022-09-09T13:44:26;4.53;;;1.10;;
24715;SDS011;12822;50.124;8.678;2022-09-09T13:46:59;5.13;;;1.02;;
24715;SDS011;12822;50.124;8.678;2022-09-09T13:49:26;3.95;;;0.80;;
24715;SDS011;12822;50.124;8.678;2022-09-09T13:52:02;3.17;;;0.85;;
24715;SDS011;12822;50.124;8.678;2022-09-09T13:54:29;4.45;;;0.93;;
24715;SDS011;12822;50.124;8.678;2022-09-09T13:56:55;2.13;;;0.75;;
24715;SDS011;12822;50.124;8.678;2022-09-09T13:59:21;3.17;;;0.73;;
24715;SDS011;12822;50.124;8.678;2022-09-09T14:01:49;1.60;;;0.70;;
24715;SDS011;12822;50.124;8.678;2022-09-09T14:04:17;2.58;;;0.60;;
24715;SDS011;12822;50.124;8.678;2022-09-09T14:06:46;3.55;;;1.17;;
24715;SDS011;12822;50.124;8.678;2022-09-09T14:09:18;2.67;;;0.60;;
24715;SDS011;12822;50.124;8.678;2022-09-09T14:11:44;2.80;;;0.73;;
24715;SDS011;12822;50.124;8.678;2022-09-09T14:14:11;3.08;;;0.50;;
24715;SDS011;12822;50.124;8.678;2022-09-09T14:16:37;2.17;;;0.60;;
24715;SDS011;12822;50.124;8.678;2022-09-09T14:19:03;2.13;;;0.90;;
24715;SDS011;12822;50.124;8.678;2022-09-09T14:21:29;5.82;;;1.00;;
24715;SDS011;12822;50.124;8.678;2022-09-09T14:23:55;4.32;;;0.95;;
24715;SDS011;12822;50.124;8.678;2022-09-09T14:26:23;4.78;;;0.88;;
24715;SDS011;12822;50.124;8.678;2022-09-09T14:28:49;3.05;;;0.75;;
24715;SDS011;12822;50.124;8.678;2022-09-09T14:31:15;3.72;;;0.90;;
24715;SDS011;12822;50.124;8.678;2022-09-09T14:33:44;2.97;;;0.77;;
24715;SDS011;12822;50.124;8.678;2022-09-09T14:36:11;2.72;;;0.90;;
24715;SDS011;12822;50.124;8.678;2022-09-09T14:38:37;5.65;;;0.90;;
24715;SDS011;12822;50.124;8.678;2022-09-09T14:41:05;3.97;;;1.73;;
24715;SDS011;12822;50.124;8.678;2022-09-09T14:43:31;1.42;;;0.63;;
24715;SDS011;12822;50.124;8.678;2022-09-09T14:46:04;4.57;;;0.90;;
24715;SDS011;12822;50.124;8.678;2022-09-09T14:48:30;3.42;;;0.70;;
24715;SDS011;12822;50.124;8.678;2022-09-09T14:50:56;5.70;;;1.13;;
24715;SDS011;12822;50.124;8.678;2022-09-09T14:53:23;4.22;;;1.20;;
24715;SDS011;12822;50.124;8.678;2022-09-09T14:55:49;5.35;;;1.20;;
24715;SDS011;12822;50.124;8.678;2022-09-09T14:58:15;4.65;;;0.93;;
24715;SDS011;12822;50.124;8.678;2022-09-09T15:00:41;1.88;;;0.95;;
24715;SDS011;12822;50.124;8.678;2022-09-09T15:03:07;3.33;;;0.93;;
24715;SDS011;12822;50.124;8.678;2022-09-09T15:05:33;4.05;;;0.68;;
24715;SDS011;12822;50.124;8.678;2022-09-09T15:07:58;3.40;;;0.93;;
24715;SDS011;12822;50.124;8.678;2022-09-09T15:10:24;3.80;;;0.68;;
24715;SDS011;12822;50.124;8.678;2022-09-09T15:12:51;5.10;;;0.85;;
24715;SDS011;12822;50.124;8.678;2022-09-09T15:15:17;2.67;;;0.80;;
24715;SDS011;12822;50.124;8.678;2022-09-09T15:17:43;3.10;;;0.70;;
24715;SDS011;12822;50.124;8.678;2022-09-09T15:20:09;3.50;;;1.25;;
24715;SDS011;12822;50.124;8.678;2022-09-09T15:22:35;5.10;;;0.85;;
24715;SDS011;12822;50.124;8.678;2022-09-09T15:25:02;2.75;;;0.77;;
24715;SDS011;12822;50.124;8.678;2022-09-09T15:27:28;5.13;;;0.77;;
24715;SDS011;12822;50.124;8.678;2022-09-09T15:29:55;3.85;;;0.60;;
24715;SDS011;12822;50.124;8.678;2022-09-09T15:32:23;3.38;;;0.80;;
24715;SDS011;12822;50.124;8.678;2022-09-09T15:34:48;6.03;;;0.70;;
24715;SDS011;12822;50.124;8.678;2022-09-09T15:37:16;6.00;;;0.88;;
24715;SDS011;12822;50.124;8.678;2022-09-09T15:39:42;2.35;;;0.80;;
24715;SDS011;12822;50.124;8.678;2022-09-09T15:42:09;3.17;;;0.82;;
24715;SDS011;12822;50.124;8.678;2022-09-09T15:44:41;3.10;;;0.95;;
24715;SDS011;12822;50.124;8.678;2022-09-09T15:47:07;4.53;;;0.90;;
24715;SDS011;12822;50.124;8.678;2022-09-09T15:49:35;2.90;;;0.90;;
24715;SDS011;12822;50.124;8.678;2022-09-09T15:52:01;3.67;;;0.90;;
24715;SDS011;12822;50.124;8.678;2022-09-09T15:54:28;2.45;;;0.90;;
24715;SDS011;12822;50.124;8.678;2022-09-09T15:56:58;5.43;;;1.10;;
24715;SDS011;12822;50.124;8.678;2022-09-09T15:59:25;3.95;;;0.80;;
24715;SDS011;12822;50.124;8.678;2022-09-09T16:01:55;2.80;;;0.90;;
24715;SDS011;12822;50.124;8.678;2022-09-09T16:04:22;6.40;;;1.10;;
24715;SDS011;12822;50.124;8.678;2022-09-09T16:06:52;6.53;;;0.82;;
24715;SDS011;12822;50.124;8.678;2022-09-09T16:09:18;3.47;;;0.88;;
24715;SDS011;12822;50.124;8.678;2022-09-09T16:11:45;3.95;;;0.90;;
24715;SDS011;12822;50.124;8.678;2022-09-09T16:14:14;6.53;;;1.15;;
24715;SDS011;12822;50.124;8.678;2022-09-09T16:16:43;3.88;;;1.10;;
24715;SDS011;12822;50.124;8.678;2022-09-09T16:19:10;3.97;;;1.05;;
24715;SDS011;12822;50.124;8.678;2022-09-09T16:21:41;4.63;;;1.20;;
24715;SDS011;12822;50.124;8.678;2022-09-09T16:24:08;3.50;;;0.95;;
24715;SDS011;12822;50.124;8.678;2022-09-09T16:26:35;5.28;;;1.17;;
24715;SDS011;12822;50.124;8.678;2022-09-09T16:29:01;2.97;;;1.10;;
24715;SDS011;12822;50.124;8.678;2022-09-09T16:31:28;5.60;;;0.80;;
24715;SDS011;12822;50.124;8.678;2022-09-09T16:33:54;7.53;;;1.13;;
24715;SDS011;12822;50.124;8.678;2022-09-09T16:36:22;3.63;;;0.70;;
24715;SDS011;12822;50.124;8.678;2022-09-09T16:38:51;4.38;;;1.10;;
24715;SDS011;12822;50.124;8.678;2022-09-09T16:41:18;6.78;;;1.20;;
24715;SDS011;12822;50.124;8.678;2022-09-09T16:43:45;4.85;;;1.10;;
24715;SDS011;12822;50.124;8.678;2022-09-09T16:46:12;5.35;;;1.23;;
24715;SDS011;12822;50.124;8.678;2022-09-09T16:48:40;7.25;;;1.15;;
24715;SDS011;12822;50.124;8.678;2022-09-09T16:51:07;4.60;;;1.08;;
24715;SDS011;12822;50.124;8.678;2022-09-09T16:53:35;3.90;;;0.98;;
24715;SDS011;12822;50.124;8.678;2022-09-09T16:56:05;3.55;;;1.23;;
24715;SDS011;12822;50.124;8.678;2022-09-09T16:58:31;4.45;;;1.13;;
24715;SDS011;12822;50.124;8.678;2022-09-09T17:00:58;2.92;;;0.90;;
24715;SDS011;12822;50.124;8.678;2022-09-09T17:03:24;2.92;;;0.82;;
24715;SDS011;12822;50.124;8.678;2022-09-09T17:05:50;7.82;;;1.45;;
24715;SDS011;12822;50.124;8.678;2022-09-09T17:08:18;3.55;;;1.30;;